sensor_id;sensor_type;location;lat;lon;timestamp;pressure;altitude;pressure_sealevel;temperature;humidity
43878;BME280;29815;48.184;11.268;2022-10-03T07:53:09;96539.44;;;9.24;100.00
43878;BME280;29815;48.184;11.268;2022-10-03T07:56:02;96538.38;;;9.25;100.00
43878;BME280;29815;48.184;11.268;2022-10-03T07:58:57;96544.91;;;9.29;100.00
43878;BME280;29815;48.184;11.268;2022-10-03T08:02:01;96544.41;;;9.32;100.00
43878;BME280;29815;48.184;11.268;2022-10-03T08:05:20;96544.75;;;9.36;100.00
43878;BME280;29815;48.184;11.268;2022-10-03T08:08:28;96547.78;;;9.39;100.00
43878;BME280;29815;48.184;11.268;2022-10-03T08:11:37;96550.50;;;9.39;100.00
43878;BME280;29815;48.184;11.268;2022-10-03T08:14:25;96558.53;;;9.39;100.00
43878;BME280;29815;48.184;11.268;2022-10-03T08:20:53;96552.22;;;9.45;100.00
43878;BME280;29815;48.184;11.268;2022-10-03T08:23:52;96563.31;;;9.49;100.00
43878;BME280;29815;48.184;11.268;2022-10-03T08:27:01;96562.03;;;9.52;100.00
43878;BME280;29815;48.184;11.268;2022-10-03T08:30:14;96565.66;;;9.57;100.00
43878;BME280;29815;48.184;11.268;2022-10-03T08:33:14;96571.56;;;9.59;100.00
43878;BME280;29815;48.184;11.268;2022-10-03T08:36:46;96562.78;;;9.64;100.00
43878;BME280;29815;48.184;11.268;2022-10-03T08:39:53;96565.47;;;9.64;100.00
43878;BME280;29815;48.184;11.268;2022-10-03T08:43:04;96558.56;;;9.68;100.00
43878;BME280;29815;48.184;11.268;2022-10-03T08:45:57;96562.75;;;9.75;100.00
43878;BME280;29815;48.184;11.268;2022-10-03T08:48:56;96563.94;;;9.79;100.00
43878;BME280;29815;48.184;11.268;2022-10-03T08:52:00;96560.09;;;9.92;100.00
43878;BME280;29815;48.184;11.268;2022-10-03T09:06:09;96555.22;;;10.68;100.00
43878;BME280;29815;48.184;11.268;2022-10-03T09:09:15;96555.88;;;10.92;100.00
43878;BME280;29815;48.184;11.268;2022-10-03T09:16:34;96554.06;;;10.97;100.00
43878;BME280;29815;48.184;11.268;2022-10-03T09:23:24;96563.53;;;11.00;100.00
43878;BME280;29815;48.184;11.268;2022-10-03T09:30:15;96567.34;;;11.04;100.00
43878;BME280;29815;48.184;11.268;2022-10-03T09:33:25;96561.22;;;11.08;100.00
43878;BME280;29815;48.184;11.268;2022-10-03T09:36:31;96566.69;;;11.13;100.00
43878;BME280;29815;48.184;11.268;2022-10-03T09:40:12;96574.63;;;11.03;100.00
43878;BME280;29815;48.184;11.268;2022-10-03T09:46:57;96569.94;;;10.94;100.00
43878;BME280;29815;48.184;11.268;2022-10-03T09:53:58;96561.66;;;11.00;100.00
43878;BME280;29815;48.184;11.268;2022-10-03T09:57:21;96559.94;;;11.11;100.00
43878;BME280;29815;48.184;11.268;2022-10-03T10:00:23;96557.09;;;11.23;100.00
43878;BME280;29815;48.184;11.268;2022-10-03T10:06:57;96554.25;;;11.51;100.00
43878;BME280;29815;48.184;11.268;2022-10-03T10:10:14;96551.50;;;11.68;100.00
43878;BME280;29815;48.184;11.268;2022-10-03T10:13:15;96555.31;;;11.72;100.00
43878;BME280;29815;48.184;11.268;2022-10-03T10:16:42;96552.56;;;11.67;100.00
43878;BME280;29815;48.184;11.268;2022-10-03T10:19:52;96551.31;;;11.74;100.00
43878;BME280;29815;48.184;11.268;2022-10-03T10:22:58;96549.78;;;11.83;100.00
43878;BME280;29815;48.184;11.268;2022-10-03T10:37:06;96542.91;;;12.51;100.00
43878;BME280;29815;48.184;11.268;2022-10-03T10:44:42;96542.19;;;12.66;100.00
43878;BME280;29815;48.184;11.268;2022-10-03T10:48:49;96535.00;;;12.77;100.00
43878;BME280;29815;48.184;11.268;2022-10-03T10:52:05;96539.94;;;12.90;100.00
43878;BME280;29815;48.184;11.268;2022-10-03T10:56:06;96535.34;;;12.91;100.00
43878;BME280;29815;48.184;11.268;2022-10-03T11:07:17;96541.53;;;13.23;100.00
43878;BME280;29815;48.184;11.268;2022-10-03T11:10:33;96531.78;;;13.22;100.00
43878;BME280;29815;48.184;11.268;2022-10-03T11:17:33;96532.63;;;12.85;100.00
43878;BME280;29815;48.184;11.268;2022-10-03T11:20:50;96526.00;;;12.66;100.00
43878;BME280;29815;48.184;11.268;2022-10-03T11:24:08;96528.19;;;12.69;100.00
43878;BME280;29815;48.184;11.268;2022-10-03T11:34:09;96515.41;;;12.97;100.00
43878;BME280;29815;48.184;11.268;2022-10-03T11:37:07;96510.84;;;13.02;100.00
43878;BME280;29815;48.184;11.268;2022-10-03T11:39:44;96511.44;;;13.09;100.00
43878;BME280;29815;48.184;11.268;2022-10-03T11:42:36;96508.81;;;13.25;100.00
43878;BME280;29815;48.184;11.268;2022-10-03T11:45:15;96508.28;;;13.28;100.00
43878;BME280;29815;48.184;11.268;2022-10-03T11:48:07;96512.94;;;13.37;100.00
43878;BME280;29815;48.184;11.268;2022-10-03T11:50:47;96502.41;;;13.46;100.00
43878;BME280;29815;48.184;11.268;2022-10-03T11:53:43;96506.28;;;13.60;100.00
43878;BME280;29815;48.184;11.268;2022-10-03T11:56:31;96509.28;;;13.74;100.00
43878;BME280;29815;48.184;11.268;2022-10-03T11:59:12;96512.53;;;13.76;100.00
43878;BME280;29815;48.184;11.268;2022-10-03T12:02:00;96505.78;;;13.83;100.00
43878;BME280;29815;48.184;11.268;2022-10-03T12:04:54;96499.06;;;14.01;100.00
43878;BME280;29815;48.184;11.268;2022-10-03T12:07:39;96504.50;;;14.16;100.00
43878;BME280;29815;48.184;11.268;2022-10-03T12:10:40;96502.06;;;14.25;100.00
43878;BME280;29815;48.184;11.268;2022-10-03T12:13:21;96493.69;;;14.37;100.00
43878;BME280;29815;48.184;11.268;2022-10-03T12:15:53;96492.63;;;14.53;100.00
43878;BME280;29815;48.184;11.268;2022-10-03T12:18:29;96492.34;;;14.75;100.00
43878;BME280;29815;48.184;11.268;2022-10-03T12:21:19;96479.84;;;14.99;100.00
43878;BME280;29815;48.184;11.268;2022-10-03T12:24:02;96477.34;;;15.08;100.00
43878;BME280;29815;48.184;11.268;2022-10-03T12:26:45;96483.81;;;15.27;100.00
43878;BME280;29815;48.184;11.268;2022-10-03T12:29:20;96484.00;;;15.51;100.00
43878;BME280;29815;48.184;11.268;2022-10-03T12:32:04;96471.84;;;15.93;100.00
43878;BME280;29815;48.184;11.268;2022-10-03T12:34:58;96466.94;;;16.34;100.00
43878;BME280;29815;48.184;11.268;2022-10-03T12:37:49;96467.97;;;16.72;100.00
43878;BME280;29815;48.184;11.268;2022-10-03T12:40:28;96469.25;;;16.84;100.00
43878;BME280;29815;48.184;11.268;2022-10-03T12:43:08;96466.41;;;16.32;100.00
43878;BME280;29815;48.184;11.268;2022-10-03T12:45:54;96463.19;;;16.24;100.00
43878;BME280;29815;48.184;11.268;2022-10-03T12:48:37;96472.94;;;15.86;100.00
43878;BME280;29815;48.184;11.268;2022-10-03T12:51:24;96467.47;;;15.37;100.00
43878;BME280;29815;48.184;11.268;2022-10-03T12:54:07;96470.00;;;15.23;100.00
43878;BME280;29815;48.184;11.268;2022-10-03T12:56:46;96473.41;;;15.49;100.00
43878;BME280;29815;48.184;11.268;2022-10-03T12:59:28;96464.84;;;15.22;100.00
43878;BME280;29815;48.184;11.268;2022-10-03T13:02:26;96464.34;;;15.05;100.00
43878;BME280;29815;48.184;11.268;2022-10-03T13:05:26;96470.19;;;15.37;100.00
43878;BME280;29815;48.184;11.268;2022-10-03T13:08:00;96464.44;;;16.03;100.00
43878;BME280;29815;48.184;11.268;2022-10-03T13:10:37;96469.31;;;16.74;100.00
43878;BME280;29815;48.184;11.268;2022-10-03T13:13:19;96460.56;;;17.30;100.00
43878;BME280;29815;48.184;11.268;2022-10-03T13:16:07;96459.22;;;17.75;100.00
43878;BME280;29815;48.184;11.268;2022-10-03T13:18:51;96467.63;;;17.31;100.00
43878;BME280;29815;48.184;11.268;2022-10-03T13:21:29;96475.53;;;16.80;100.00
43878;BME280;29815;48.184;11.268;2022-10-03T13:24:21;96469.13;;;16.32;100.00
43878;BME280;29815;48.184;11.268;2022-10-03T13:27:09;96472.44;;;15.84;100.00
43878;BME280;29815;48.184;11.268;2022-10-03T13:29:58;96472.59;;;15.59;100.00
43878;BME280;29815;48.184;11.268;2022-10-03T13:32:33;96471.88;;;15.23;100.00
43878;BME280;29815;48.184;11.268;2022-10-03T13:35:16;96476.84;;;14.96;100.00
43878;BME280;29815;48.184;11.268;2022-10-03T13:38:28;96470.41;;;14.66;100.00
43878;BME280;29815;48.184;11.268;2022-10-03T13:41:25;96463.09;;;14.51;100.00
43878;BME280;29815;48.184;11.268;2022-10-03T13:44:02;96467.69;;;14.51;100.00
43878;BME280;29815;48.184;11.268;2022-10-03T13:46:41;96456.84;;;14.56;100.00
43878;BME280;29815;48.184;11.268;2022-10-03T13:49:15;96463.56;;;14.99;100.00
43878;BME280;29815;48.184;11.268;2022-10-03T13:51:55;96451.03;;;15.83;100.00
43878;BME280;29815;48.184;11.268;2022-10-03T13:54:45;96453.22;;;16.83;100.00
43878;BME280;29815;48.184;11.268;2022-10-03T13:57:23;96446.41;;;17.52;100.00
43878;BME280;29815;48.184;11.268;2022-10-03T14:00:00;96433.66;;;18.09;96.89
43878;BME280;29815;48.184;11.268;2022-10-03T14:02:49;96432.50;;;18.47;96.25
43878;BME280;29815;48.184;11.268;2022-10-03T14:11:58;96437.09;;;19.53;82.58
43878;BME280;29815;48.184;11.268;2022-10-03T14:14:55;96431.69;;;19.75;82.00
43878;BME280;29815;48.184;11.268;2022-10-03T14:17:37;96425.09;;;19.90;75.92
43878;BME280;29815;48.184;11.268;2022-10-03T14:20:19;96427.72;;;19.95;75.57
43878;BME280;29815;48.184;11.268;2022-10-03T14:23:00;96428.06;;;20.16;77.60
43878;BME280;29815;48.184;11.268;2022-10-03T14:25:39;96429.47;;;20.36;74.87
43878;BME280;29815;48.184;11.268;2022-10-03T14:28:15;96417.56;;;20.32;71.75
43878;BME280;29815;48.184;11.268;2022-10-03T14:30:54;96426.03;;;20.44;70.43
43878;BME280;29815;48.184;11.268;2022-10-03T14:33:38;96426.44;;;19.79;69.22
43878;BME280;29815;48.184;11.268;2022-10-03T14:36:20;96434.38;;;19.12;73.44
43878;BME280;29815;48.184;11.268;2022-10-03T14:39:15;96419.97;;;18.46;76.61
43878;BME280;29815;48.184;11.268;2022-10-03T14:42:12;96424.72;;;18.59;78.34
43878;BME280;29815;48.184;11.268;2022-10-03T14:45:06;96425.16;;;18.94;79.48
43878;BME280;29815;48.184;11.268;2022-10-03T14:47:40;96428.63;;;19.13;71.50
43878;BME280;29815;48.184;11.268;2022-10-03T14:50:14;96418.94;;;18.61;72.07
43878;BME280;29815;48.184;11.268;2022-10-03T14:52:50;96426.88;;;18.06;74.13
43878;BME280;29815;48.184;11.268;2022-10-03T14:55:36;96431.00;;;18.22;79.01
43878;BME280;29815;48.184;11.268;2022-10-03T14:58:16;96419.16;;;18.46;75.42
43878;BME280;29815;48.184;11.268;2022-10-03T15:00:48;96418.13;;;18.60;74.37
43878;BME280;29815;48.184;11.268;2022-10-03T15:03:30;96417.53;;;18.64;76.39
43878;BME280;29815;48.184;11.268;2022-10-03T15:06:30;96420.72;;;18.52;78.50
43878;BME280;29815;48.184;11.268;2022-10-03T15:09:08;96420.69;;;18.19;79.57
43878;BME280;29815;48.184;11.268;2022-10-03T15:11:45;96416.00;;;17.87;81.92
43878;BME280;29815;48.184;11.268;2022-10-03T15:14:17;96414.94;;;17.46;82.72
43878;BME280;29815;48.184;11.268;2022-10-03T15:16:50;96421.09;;;17.09;86.18
43878;BME280;29815;48.184;11.268;2022-10-03T15:19:23;96418.72;;;16.78;91.91
43878;BME280;29815;48.184;11.268;2022-10-03T15:22:10;96412.41;;;16.54;95.64
43878;BME280;29815;48.184;11.268;2022-10-03T15:24:50;96410.06;;;16.13;95.93
43878;BME280;29815;48.184;11.268;2022-10-03T15:27:24;96411.41;;;15.77;95.81
43878;BME280;29815;48.184;11.268;2022-10-03T15:29:57;96414.59;;;15.35;100.00
43878;BME280;29815;48.184;11.268;2022-10-03T15:32:30;96416.13;;;15.02;100.00
43878;BME280;29815;48.184;11.268;2022-10-03T15:35:03;96411.81;;;14.80;100.00
43878;BME280;29815;48.184;11.268;2022-10-03T15:37:37;96416.75;;;14.53;100.00
43878;BME280;29815;48.184;11.268;2022-10-03T15:40:22;96417.03;;;14.31;100.00
43878;BME280;29815;48.184;11.268;2022-10-03T15:43:04;96409.19;;;14.09;100.00
43878;BME280;29815;48.184;11.268;2022-10-03T15:45:37;96420.84;;;13.95;100.00
43878;BME280;29815;48.184;11.268;2022-10-03T15:48:10;96417.56;;;13.82;100.00
43878;BME280;29815;48.184;11.268;2022-10-03T15:50:41;96415.13;;;13.71;100.00
43878;BME280;29815;48.184;11.268;2022-10-03T15:53:17;96427.53;;;13.57;100.00
43878;BME280;29815;48.184;11.268;2022-10-03T15:56:08;96430.19;;;13.41;100.00
43878;BME280;29815;48.184;11.268;2022-10-03T15:58:42;96423.97;;;13.31;100.00
43878;BME280;29815;48.184;11.268;2022-10-03T16:01:18;96427.69;;;13.19;100.00
43878;BME280;29815;48.184;11.268;2022-10-03T16:03:51;96424.66;;;13.06;100.00
43878;BME280;29815;48.184;11.268;2022-10-03T16:06:23;96428.09;;;12.91;100.00
43878;BME280;29815;48.184;11.268;2022-10-03T16:09:01;96426.44;;;12.80;100.00
43878;BME280;29815;48.184;11.268;2022-10-03T16:11:38;96436.59;;;12.68;100.00
43878;BME280;29815;48.184;11.268;2022-10-03T16:14:16;96420.88;;;12.54;100.00
43878;BME280;29815;48.184;11.268;2022-10-03T16:16:50;96432.13;;;12.41;100.00
43878;BME280;29815;48.184;11.268;2022-10-03T16:19:32;96428.81;;;12.29;100.00
43878;BME280;29815;48.184;11.268;2022-10-03T16:22:12;96426.53;;;12.16;100.00
43878;BME280;29815;48.184;11.268;2022-10-03T16:25:06;96426.44;;;12.01;100.00
43878;BME280;29815;48.184;11.268;2022-10-03T16:27:45;96426.53;;;11.84;100.00
43878;BME280;29815;48.184;11.268;2022-10-03T16:30:22;96432.28;;;11.66;100.00
43878;BME280;29815;48.184;11.268;2022-10-03T16:33:00;96428.06;;;11.48;100.00
43878;BME280;29815;48.184;11.268;2022-10-03T16:35:33;96433.53;;;11.31;100.00
43878;BME280;29815;48.184;11.268;2022-10-03T16:38:07;96440.88;;;11.14;100.00
43878;BME280;29815;48.184;11.268;2022-10-03T16:40:54;96436.84;;;10.95;100.00
43878;BME280;29815;48.184;11.268;2022-10-03T16:43:26;96441.25;;;10.79;100.00
43878;BME280;29815;48.184;11.268;2022-10-03T16:45:59;96443.75;;;10.64;100.00
43878;BME280;29815;48.184;11.268;2022-10-03T16:48:33;96445.16;;;10.49;100.00
43878;BME280;29815;48.184;11.268;2022-10-03T16:51:22;96445.41;;;10.31;100.00
43878;BME280;29815;48.184;11.268;2022-10-03T16:53:54;96438.69;;;10.17;100.00
43878;BME280;29815;48.184;11.268;2022-10-03T16:56:26;96433.91;;;10.02;100.00
43878;BME280;29815;48.184;11.268;2022-10-03T16:59:04;96436.09;;;9.89;100.00
43878;BME280;29815;48.184;11.268;2022-10-03T17:01:36;96439.09;;;9.75;100.00
43878;BME280;29815;48.184;11.268;2022-10-03T17:04:16;96441.59;;;9.65;100.00
43878;BME280;29815;48.184;11.268;2022-10-03T17:06:51;96442.75;;;9.53;100.00
43878;BME280;29815;48.184;11.268;2022-10-03T17:09:32;96449.78;;;9.42;100.00
43878;BME280;29815;48.184;11.268;2022-10-03T17:12:06;96450.63;;;9.31;100.00
43878;BME280;29815;48.184;11.268;2022-10-03T17:14:40;96466.81;;;9.19;100.00
43878;BME280;29815;48.184;11.268;2022-10-03T17:17:20;96450.97;;;9.06;100.00
43878;BME280;29815;48.184;11.268;2022-10-03T17:19:57;96456.38;;;8.94;100.00
43878;BME280;29815;48.184;11.268;2022-10-03T17:22:30;96455.34;;;8.83;100.00
43878;BME280;29815;48.184;11.268;2022-10-03T17:25:05;96457.81;;;8.73;100.00
43878;BME280;29815;48.184;11.268;2022-10-03T17:27:56;96448.16;;;8.61;100.00
43878;BME280;29815;48.184;11.268;2022-10-03T17:30:28;96446.63;;;8.53;100.00
43878;BME280;29815;48.184;11.268;2022-10-03T17:33:04;96448.88;;;8.44;100.00
43878;BME280;29815;48.184;11.268;2022-10-03T17:35:40;96455.63;;;8.35;100.00
43878;BME280;29815;48.184;11.268;2022-10-03T17:38:22;96453.25;;;8.27;100.00
43878;BME280;29815;48.184;11.268;2022-10-03T17:41:18;96447.22;;;8.20;100.00
43878;BME280;29815;48.184;11.268;2022-10-03T17:43:58;96460.72;;;8.13;100.00
43878;BME280;29815;48.184;11.268;2022-10-03T17:46:39;96463.75;;;8.05;100.00
43878;BME280;29815;48.184;11.268;2022-10-03T17:49:18;96466.28;;;8.00;100.00
43878;BME280;29815;48.184;11.268;2022-10-03T17:51:53;96459.97;;;7.95;100.00
43878;BME280;29815;48.184;11.268;2022-10-03T17:54:25;96459.88;;;7.90;100.00
43878;BME280;29815;48.184;11.268;2022-10-03T17:57:00;96466.16;;;7.84;100.00
43878;BME280;29815;48.184;11.268;2022-10-03T17:59:35;96460.91;;;7.77;100.00
43878;BME280;29815;48.184;11.268;2022-10-03T18:02:15;96465.75;;;7.68;100.00
43878;BME280;29815;48.184;11.268;2022-10-03T18:04:51;96468.56;;;7.62;100.00
43878;BME280;29815;48.184;11.268;2022-10-03T18:07:27;96465.38;;;7.53;100.00
43878;BME280;29815;48.184;11.268;2022-10-03T18:09:58;96464.19;;;7.49;100.00
43878;BME280;29815;48.184;11.268;2022-10-03T18:12:30;96468.81;;;7.42;100.00
43878;BME280;29815;48.184;11.268;2022-10-03T18:18:44;96459.78;;;7.25;100.00
43878;BME280;29815;48.184;11.268;2022-10-03T18:21:34;96459.50;;;7.14;100.00
43878;BME280;29815;48.184;11.268;2022-10-03T18:24:23;96456.13;;;7.07;100.00
43878;BME280;29815;48.184;11.268;2022-10-03T18:27:06;96465.03;;;7.01;100.00
43878;BME280;29815;48.184;11.268;2022-10-03T18:29:40;96467.19;;;6.93;100.00
43878;BME280;29815;48.184;11.268;2022-10-03T18:32:17;96461.09;;;6.86;100.00
43878;BME280;29815;48.184;11.268;2022-10-03T18:34:52;96462.41;;;6.83;100.00
43878;BME280;29815;48.184;11.268;2022-10-03T18:37:53;96462.97;;;6.85;100.00
43878;BME280;29815;48.184;11.268;2022-10-03T18:40:29;96457.59;;;6.85;100.00
43878;BME280;29815;48.184;11.268;2022-10-03T18:43:03;96455.97;;;6.84;100.00
43878;BME280;29815;48.184;11.268;2022-10-03T18:45:36;96461.91;;;6.86;100.00
43878;BME280;29815;48.184;11.268;2022-10-03T18:48:13;96459.47;;;6.85;100.00
43878;BME280;29815;48.184;11.268;2022-10-03T18:50:53;96457.50;;;6.80;100.00
43878;BME280;29815;48.184;11.268;2022-10-03T18:53:30;96458.38;;;6.74;100.00
43878;BME280;29815;48.184;11.268;2022-10-03T18:56:05;96459.63;;;6.71;100.00
43878;BME280;29815;48.184;11.268;2022-10-03T18:58:38;96462.38;;;6.65;100.00
43878;BME280;29815;48.184;11.268;2022-10-03T19:01:15;96459.75;;;6.58;100.00
43878;BME280;29815;48.184;11.268;2022-10-03T19:03:54;96459.84;;;6.52;100.00
43878;BME280;29815;48.184;11.268;2022-10-03T19:06:27;96466.91;;;6.46;100.00
43878;BME280;29815;48.184;11.268;2022-10-03T19:09:00;96468.00;;;6.38;100.00
43878;BME280;29815;48.184;11.268;2022-10-03T19:11:38;96474.00;;;6.34;100.00
43878;BME280;29815;48.184;11.268;2022-10-03T19:14:10;96472.25;;;6.28;100.00
43878;BME280;29815;48.184;11.268;2022-10-03T19:17:00;96469.19;;;6.24;100.00
43878;BME280;29815;48.184;11.268;2022-10-03T19:19:48;96460.19;;;6.19;100.00
43878;BME280;29815;48.184;11.268;2022-10-03T19:22:27;96462.47;;;6.15;100.00
43878;BME280;29815;48.184;11.268;2022-10-03T19:25:00;96465.59;;;6.12;100.00
43878;BME280;29815;48.184;11.268;2022-10-03T19:27:43;96462.75;;;6.07;100.00
43878;BME280;29815;48.184;11.268;2022-10-03T19:30:17;96461.31;;;6.04;100.00
43878;BME280;29815;48.184;11.268;2022-10-03T19:32:51;96464.91;;;5.98;100.00
43878;BME280;29815;48.184;11.268;2022-10-03T19:35:23;96460.81;;;5.96;100.00
43878;BME280;29815;48.184;11.268;2022-10-03T19:37:54;96458.78;;;5.91;100.00
43878;BME280;29815;48.184;11.268;2022-10-03T19:40:35;96461.03;;;5.88;100.00
43878;BME280;29815;48.184;11.268;2022-10-03T19:46:38;96458.63;;;5.79;100.00
43878;BME280;29815;48.184;11.268;2022-10-03T19:49:46;96456.38;;;5.76;100.00
43878;BME280;29815;48.184;11.268;2022-10-03T19:52:23;96455.22;;;5.72;100.00
43878;BME280;29815;48.184;11.268;2022-10-03T19:54:59;96457.28;;;5.70;100.00
43878;BME280;29815;48.184;11.268;2022-10-03T19:57:37;96453.81;;;5.63;100.00
43878;BME280;29815;48.184;11.268;2022-10-03T20:00:23;96453.22;;;5.61;100.00
43878;BME280;29815;48.184;11.268;2022-10-03T20:03:05;96462.69;;;5.57;100.00
43878;BME280;29815;48.184;11.268;2022-10-03T20:05:59;96456.16;;;5.53;100.00
43878;BME280;29815;48.184;11.268;2022-10-03T20:08:32;96457.59;;;5.49;100.00
43878;BME280;29815;48.184;11.268;2022-10-03T20:11:15;96454.56;;;5.46;100.00
43878;BME280;29815;48.184;11.268;2022-10-03T20:13:50;96461.16;;;5.43;100.00
43878;BME280;29815;48.184;11.268;2022-10-03T20:16:24;96458.09;;;5.39;100.00
43878;BME280;29815;48.184;11.268;2022-10-03T20:19:02;96458.75;;;5.35;100.00
43878;BME280;29815;48.184;11.268;2022-10-03T20:21:33;96458.56;;;5.30;100.00
43878;BME280;29815;48.184;11.268;2022-10-03T20:24:08;96457.34;;;5.26;100.00
43878;BME280;29815;48.184;11.268;2022-10-03T20:26:43;96455.91;;;5.23;100.00
43878;BME280;29815;48.184;11.268;2022-10-03T20:29:23;96448.34;;;5.20;100.00
43878;BME280;29815;48.184;11.268;2022-10-03T20:32:02;96457.00;;;5.16;100.00
43878;BME280;29815;48.184;11.268;2022-10-03T20:34:32;96456.41;;;5.14;100.00
43878;BME280;29815;48.184;11.268;2022-10-03T20:37:16;96448.81;;;5.10;100.00
43878;BME280;29815;48.184;11.268;2022-10-03T20:39:55;96445.75;;;5.07;100.00
43878;BME280;29815;48.184;11.268;2022-10-03T20:42:31;96447.00;;;5.04;100.00
43878;BME280;29815;48.184;11.268;2022-10-03T20:45:01;96449.06;;;5.02;100.00
43878;BME280;29815;48.184;11.268;2022-10-03T20:47:42;96452.97;;;5.00;100.00
43878;BME280;29815;48.184;11.268;2022-10-03T20:50:24;96451.53;;;4.97;100.00
43878;BME280;29815;48.184;11.268;2022-10-03T20:52:58;96451.16;;;4.94;100.00
43878;BME280;29815;48.184;11.268;2022-10-03T20:55:32;96447.50;;;4.88;100.00
43878;BME280;29815;48.184;11.268;2022-10-03T20:58:09;96447.91;;;4.85;100.00
43878;BME280;29815;48.184;11.268;2022-10-03T21:00:45;96449.78;;;4.85;100.00
43878;BME280;29815;48.184;11.268;2022-10-03T21:03:24;96454.50;;;4.83;100.00
43878;BME280;29815;48.184;11.268;2022-10-03T21:05:56;96454.69;;;4.81;100.00
43878;BME280;29815;48.184;11.268;2022-10-03T21:08:28;96443.03;;;4.75;100.00
43878;BME280;29815;48.184;11.268;2022-10-03T21:11:01;96446.50;;;4.76;100.00
43878;BME280;29815;48.184;11.268;2022-10-03T21:13:34;96445.28;;;4.72;100.00
43878;BME280;29815;48.184;11.268;2022-10-03T21:16:15;96451.03;;;4.69;100.00
43878;BME280;29815;48.184;11.268;2022-10-03T21:18:49;96445.09;;;4.67;100.00
43878;BME280;29815;48.184;11.268;2022-10-03T21:21:22;96443.69;;;4.64;100.00
43878;BME280;29815;48.184;11.268;2022-10-03T21:23:55;96442.47;;;4.60;100.00
43878;BME280;29815;48.184;11.268;2022-10-03T21:26:32;96440.22;;;4.57;100.00
43878;BME280;29815;48.184;11.268;2022-10-03T21:29:20;96442.06;;;4.57;100.00
43878;BME280;29815;48.184;11.268;2022-10-03T21:32:09;96438.81;;;4.55;100.00
43878;BME280;29815;48.184;11.268;2022-10-03T21:34:49;96437.16;;;4.54;100.00
43878;BME280;29815;48.184;11.268;2022-10-03T21:37:26;96432.25;;;4.51;100.00
43878;BME280;29815;48.184;11.268;2022-10-03T21:40:10;96428.16;;;4.48;100.00
43878;BME280;29815;48.184;11.268;2022-10-03T21:42:53;96431.44;;;4.43;100.00
43878;BME280;29815;48.184;11.268;2022-10-03T21:45:33;96427.34;;;4.41;100.00
43878;BME280;29815;48.184;11.268;2022-10-03T21:48:09;96425.91;;;4.38;100.00
43878;BME280;29815;48.184;11.268;2022-10-03T21:50:51;96420.81;;;4.37;100.00
43878;BME280;29815;48.184;11.268;2022-10-03T21:53:24;96414.28;;;4.33;100.00
43878;BME280;29815;48.184;11.268;2022-10-03T21:59:33;96406.91;;;4.28;100.00
43878;BME280;29815;48.184;11.268;2022-10-03T22:02:10;96400.34;;;4.24;100.00
43878;BME280;29815;48.184;11.268;2022-10-03T22:04:46;96401.59;;;4.22;100.00
43878;BME280;29815;48.184;11.268;2022-10-03T22:07:31;96394.81;;;4.19;100.00
43878;BME280;29815;48.184;11.268;2022-10-03T22:10:15;96387.03;;;4.18;100.00
43878;BME280;29815;48.184;11.268;2022-10-03T22:12:50;96388.28;;;4.15;100.00
43878;BME280;29815;48.184;11.268;2022-10-03T22:15:25;96381.31;;;4.14;100.00
43878;BME280;29815;48.184;11.268;2022-10-03T22:18:00;96383.97;;;4.14;100.00
43878;BME280;29815;48.184;11.268;2022-10-03T22:20:33;96386.84;;;4.13;100.00
43878;BME280;29815;48.184;11.268;2022-10-03T22:23:12;96380.13;;;4.10;100.00
43878;BME280;29815;48.184;11.268;2022-10-03T22:25:55;96373.56;;;4.06;100.00
43878;BME280;29815;48.184;11.268;2022-10-03T22:28:38;96367.63;;;4.04;100.00
43878;BME280;29815;48.184;11.268;2022-10-03T22:31:18;96370.28;;;4.04;100.00
43878;BME280;29815;48.184;11.268;2022-10-03T22:33:57;96372.94;;;4.04;100.00
43878;BME280;29815;48.184;11.268;2022-10-03T22:36:41;96363.31;;;4.03;100.00
43878;BME280;29815;48.184;11.268;2022-10-03T22:39:17;96365.38;;;4.01;100.00
43878;BME280;29815;48.184;11.268;2022-10-03T22:41:49;96368.44;;;3.98;100.00
43878;BME280;29815;48.184;11.268;2022-10-03T22:44:22;96366.81;;;3.97;100.00
43878;BME280;29815;48.184;11.268;2022-10-03T22:46:56;96367.22;;;3.94;100.00
43878;BME280;29815;48.184;11.268;2022-10-03T22:49:29;96368.66;;;3.90;100.00
43878;BME280;29815;48.184;11.268;2022-10-03T22:52:02;96361.09;;;3.87;100.00
43878;BME280;29815;48.184;11.268;2022-10-03T22:54:37;96373.22;;;3.83;100.00
43878;BME280;29815;48.184;11.268;2022-10-03T22:57:07;96362.97;;;3.80;100.00
43878;BME280;29815;48.184;11.268;2022-10-03T22:59:40;96360.50;;;3.78;100.00
43878;BME280;29815;48.184;11.268;2022-10-03T23:02:13;96357.44;;;3.74;100.00
43878;BME280;29815;48.184;11.268;2022-10-03T23:04:46;96359.91;;;3.69;100.00
43878;BME280;29815;48.184;11.268;2022-10-03T23:07:29;96357.44;;;3.68;100.00
43878;BME280;29815;48.184;11.268;2022-10-03T23:10:15;96348.03;;;3.65;100.00
43878;BME280;29815;48.184;11.268;2022-10-03T23:12:53;96347.41;;;3.63;100.00
43878;BME280;29815;48.184;11.268;2022-10-03T23:15:30;96341.28;;;3.63;100.00
43878;BME280;29815;48.184;11.268;2022-10-03T23:18:25;96343.31;;;3.61;100.00
43878;BME280;29815;48.184;11.268;2022-10-03T23:21:05;96351.72;;;3.58;100.00
43878;BME280;29815;48.184;11.268;2022-10-03T23:23:54;96346.59;;;3.56;100.00
43878;BME280;29815;48.184;11.268;2022-10-03T23:26:43;96345.19;;;3.54;100.00
43878;BME280;29815;48.184;11.268;2022-10-03T23:29:37;96343.97;;;3.50;100.00
43878;BME280;29815;48.184;11.268;2022-10-03T23:32:06;96346.00;;;3.48;100.00
43878;BME280;29815;48.184;11.268;2022-10-03T23:35:06;96342.13;;;3.44;100.00